createdAt,value
2018-12-16T00:04:02.414Z,114.35
2018-12-16T00:09:07.877Z,101.65
2018-12-16T00:14:13.089Z,95.12
2018-12-16T00:19:16.268Z,103.67
2018-12-16T00:24:19.579Z,72.82
2018-12-16T00:29:22.757Z,53.33
2018-12-16T00:34:26.087Z,57.08
2018-12-16T00:39:29.352Z,64.05
2018-12-16T00:44:32.672Z,72.78
2018-12-16T00:49:35.990Z,58.83
2018-12-16T00:54:39.499Z,51.92
2018-12-16T00:59:42.807Z,41.28
2018-12-16T01:04:45.971Z,47.62
2018-12-16T01:09:49.156Z,48.80
2018-12-16T01:14:52.354Z,58.00
2018-12-16T01:19:55.627Z,56.23
2018-12-16T01:24:59.270Z,69.67
2018-12-16T01:30:02.414Z,56.95
2018-12-16T01:35:06.082Z,49.05
2018-12-16T01:40:09.299Z,55.90
2018-12-16T01:45:12.703Z,66.67
2018-12-16T01:50:15.955Z,72.75
2018-12-16T01:55:19.326Z,70.52
2018-12-16T02:00:23.149Z,76.10
2018-12-16T02:05:26.441Z,75.35
2018-12-16T02:10:29.724Z,51.35
2018-12-16T02:15:32.995Z,45.45
2018-12-16T02:20:36.258Z,41.33
2018-12-16T02:25:39.557Z,60.35
2018-12-16T02:30:42.777Z,78.45
2018-12-16T02:35:46.117Z,57.93
2018-12-16T02:40:49.419Z,66.25
2018-12-16T02:45:52.682Z,40.33
2018-12-16T02:50:55.956Z,31.70
2018-12-16T02:55:59.289Z,32.65
2018-12-16T03:01:02.647Z,33.30
2018-12-16T03:06:05.957Z,36.98
2018-12-16T03:11:09.172Z,39.78
2018-12-16T03:16:12.440Z,42.48
2018-12-16T03:21:15.687Z,57.33
2018-12-16T03:26:19.583Z,72.32
2018-12-16T03:31:22.758Z,63.20
2018-12-16T03:36:27.012Z,49.55
2018-12-16T03:41:30.288Z,43.15
2018-12-16T03:46:33.615Z,39.60
2018-12-16T03:51:36.856Z,35.75
2018-12-16T03:56:40.038Z,45.80
2018-12-16T04:01:45.385Z,40.90
2018-12-16T04:06:48.531Z,37.08
2018-12-16T04:11:51.996Z,59.42
2018-12-16T04:16:55.288Z,52.17
2018-12-16T04:21:58.593Z,46.48
2018-12-16T04:27:01.884Z,33.98
2018-12-16T04:32:05.189Z,30.48
2018-12-16T04:37:08.438Z,31.97
2018-12-16T04:42:11.639Z,45.05
2018-12-16T04:47:14.941Z,102.12
2018-12-16T04:52:18.130Z,157.00
2018-12-16T04:57:24.997Z,80.45
2018-12-16T05:02:29.483Z,153.55
2018-12-16T05:07:32.947Z,77.10
2018-12-16T05:12:36.174Z,67.22
2018-12-16T05:17:39.413Z,76.92
2018-12-16T05:22:42.649Z,89.10
2018-12-16T05:27:45.944Z,121.35
2018-12-16T05:32:49.150Z,116.22
2018-12-16T05:37:52.389Z,106.20
2018-12-16T05:42:55.673Z,123.07
2018-12-16T05:47:59.154Z,100.90
2018-12-16T05:53:02.437Z,112.85
2018-12-16T05:58:05.895Z,112.60
2018-12-16T06:03:09.130Z,104.97
2018-12-16T06:08:12.410Z,113.37
2018-12-16T06:13:16.052Z,178.75
2018-12-16T06:18:19.317Z,91.50
2018-12-16T06:23:22.597Z,72.05
2018-12-16T06:28:25.979Z,89.17
2018-12-16T06:33:29.228Z,52.93
2018-12-16T06:38:32.531Z,36.77
2018-12-16T06:43:35.695Z,103.55
2018-12-16T06:48:38.837Z,84.80
2018-12-16T06:53:42.120Z,43.85
2018-12-16T06:58:45.402Z,36.25
2018-12-16T07:03:48.885Z,32.03
2018-12-16T07:08:52.181Z,28.85
2018-12-16T07:13:55.597Z,37.85
2018-12-16T07:18:58.997Z,35.92
2018-12-16T07:24:09.019Z,48.83
2018-12-16T07:29:08.646Z,48.13
2018-12-16T07:34:12.048Z,72.65
2018-12-16T07:39:15.376Z,78.60
2018-12-16T07:44:19.044Z,54.10
2018-12-16T07:49:22.393Z,53.75
2018-12-16T07:54:25.583Z,73.60
2018-12-16T07:59:28.925Z,76.12
2018-12-16T08:04:33.228Z,48.52
2018-12-16T08:09:36.507Z,89.85
2018-12-16T08:14:39.791Z,60.40
2018-12-16T08:19:43.079Z,62.83
2018-12-16T08:24:46.649Z,58.42
2018-12-16T08:29:49.997Z,89.62
2018-12-16T08:34:53.206Z,148.05
2018-12-16T08:39:56.519Z,105.17
2018-12-16T08:44:59.911Z,102.25
2018-12-16T08:50:03.590Z,102.50
2018-12-16T08:55:07.128Z,92.78
2018-12-16T09:00:10.753Z,86.02
2018-12-16T09:05:14.123Z,86.50
2018-12-16T09:10:17.622Z,82.90
2018-12-16T09:15:20.842Z,109.25
2018-12-16T09:20:24.225Z,55.95
2018-12-16T09:25:27.386Z,71.15
2018-12-16T09:30:30.667Z,69.40
2018-12-16T09:35:33.921Z,96.92
2018-12-16T09:40:37.164Z,74.62
2018-12-16T09:45:40.664Z,79.95
2018-12-16T09:50:44.086Z,48.87
2018-12-16T09:55:47.238Z,49.00
2018-12-16T10:00:50.527Z,51.65
2018-12-16T10:05:53.732Z,50.17
2018-12-16T10:10:57.536Z,33.98
2018-12-16T10:16:00.763Z,34.80
2018-12-16T10:21:04.415Z,33.53
2018-12-16T10:26:07.683Z,33.80
2018-12-16T10:31:11.002Z,36.50
2018-12-16T10:36:14.347Z,42.65
2018-12-16T10:41:17.509Z,49.18
2018-12-16T10:46:20.849Z,40.30
2018-12-16T10:51:24.045Z,38.98
2018-12-16T10:56:27.466Z,41.50
2018-12-16T11:01:30.759Z,35.35
2018-12-16T11:06:34.045Z,28.85
2018-12-16T11:11:37.316Z,41.33
2018-12-16T11:16:40.565Z,36.23
2018-12-16T11:21:45.780Z,30.50
2018-12-16T11:26:49.047Z,33.25
2018-12-16T11:31:52.322Z,36.80
2018-12-16T11:36:55.707Z,29.42
2018-12-16T11:41:58.900Z,43.52
2018-12-16T11:47:02.157Z,34.38
2018-12-16T11:52:05.462Z,48.13
2018-12-16T11:57:08.918Z,41.55
2018-12-16T12:02:12.313Z,43.17
2018-12-16T12:07:17.700Z,42.08
2018-12-16T12:12:20.958Z,48.40
2018-12-16T12:17:24.193Z,54.70
2018-12-16T12:22:27.457Z,52.88
2018-12-16T12:27:30.947Z,68.78
2018-12-16T12:32:34.715Z,50.43
2018-12-16T12:37:39.083Z,55.90
2018-12-16T12:42:42.303Z,74.50
2018-12-16T12:47:45.554Z,61.18
2018-12-16T12:52:48.727Z,74.22
2018-12-16T12:57:53.085Z,90.22
2018-12-16T13:02:56.553Z,79.17
2018-12-16T13:07:59.998Z,154.42
2018-12-16T13:13:03.278Z,115.03
2018-12-16T13:18:06.773Z,111.88
2018-12-16T13:23:10.093Z,69.58
2018-12-16T13:28:13.449Z,71.85
2018-12-16T13:33:16.743Z,70.10
2018-12-16T13:38:19.957Z,79.00
2018-12-16T13:43:23.210Z,96.95
2018-12-16T13:48:26.480Z,141.88
2018-12-16T13:53:29.749Z,150.55
2018-12-16T13:58:32.916Z,127.85
2018-12-16T14:03:36.203Z,88.82
2018-12-16T14:08:40.045Z,89.20
2018-12-16T14:13:44.554Z,81.20
2018-12-16T14:18:48.535Z,93.42
2018-12-16T14:23:51.687Z,51.25
2018-12-16T14:28:54.891Z,39.25
2018-12-16T14:33:58.172Z,34.75
2018-12-16T14:39:01.288Z,17.98
2018-12-16T14:44:06.605Z,25.00
2018-12-16T14:49:09.901Z,27.30
2018-12-16T14:54:13.273Z,25.08
2018-12-16T14:59:16.662Z,38.80
2018-12-16T15:04:20.090Z,26.15
2018-12-16T15:09:23.314Z,29.07
2018-12-16T15:14:26.555Z,21.50
2018-12-16T15:19:29.858Z,20.08
2018-12-16T15:24:33.246Z,21.65
2018-12-16T15:29:36.668Z,14.30
2018-12-16T15:34:41.429Z,23.25
2018-12-16T15:39:46.453Z,20.20
2018-12-16T15:44:49.909Z,24.60
2018-12-16T15:49:53.152Z,26.57
2018-12-16T15:54:56.595Z,24.50
2018-12-16T16:00:00.041Z,24.72
2018-12-16T16:05:03.457Z,27.55
2018-12-16T16:10:08.057Z,16.60
2018-12-16T16:15:11.354Z,15.10
2018-12-16T16:20:14.749Z,12.90
2018-12-16T16:25:18.171Z,9.88
2018-12-16T16:30:21.496Z,15.68
2018-12-16T16:35:24.995Z,5.55
2018-12-16T16:40:29.541Z,11.70
2018-12-16T16:45:32.771Z,9.20
2018-12-16T16:50:36.056Z,9.83
2018-12-16T16:55:39.838Z,6.80
2018-12-16T17:00:43.134Z,9.05
2018-12-16T17:05:46.639Z,8.35
2018-12-16T17:10:50.038Z,9.78
2018-12-16T17:15:53.322Z,11.43
2018-12-16T17:20:56.647Z,15.45
2018-12-16T17:26:00.035Z,11.88
2018-12-16T17:31:03.949Z,9.18
2018-12-16T17:36:07.525Z,13.90
2018-12-16T17:41:10.843Z,10.90
2018-12-16T17:46:14.452Z,21.00
2018-12-16T17:51:18.063Z,9.50
2018-12-16T17:56:21.618Z,8.63
2018-12-16T18:01:24.997Z,8.15
2018-12-16T18:06:28.524Z,11.33
2018-12-16T18:11:31.990Z,9.23
2018-12-16T18:16:35.446Z,10.68
2018-12-16T18:21:38.950Z,10.23
2018-12-16T18:26:44.156Z,11.05
2018-12-16T18:31:47.831Z,9.10
2018-12-16T18:36:51.376Z,9.35
2018-12-16T18:41:55.281Z,10.60
2018-12-16T18:46:58.695Z,8.53
2018-12-16T18:52:02.089Z,8.38
2018-12-16T18:57:07.397Z,8.68
2018-12-16T19:02:12.480Z,13.45
2018-12-16T19:07:15.934Z,7.45
2018-12-16T19:12:19.260Z,11.93
2018-12-16T19:17:22.544Z,8.20
2018-12-16T19:22:26.235Z,9.30
2018-12-16T19:27:29.827Z,12.65
2018-12-16T19:32:33.714Z,10.60
2018-12-16T19:37:39.099Z,6.65
2018-12-16T19:42:42.638Z,7.05
2018-12-16T19:47:49.660Z,8.85
2018-12-16T19:52:53.380Z,7.28
2018-12-16T19:57:56.690Z,7.85
2018-12-16T20:03:00.078Z,8.48
2018-12-16T20:08:03.674Z,9.65
2018-12-16T20:13:07.013Z,6.10
2018-12-16T20:18:10.271Z,8.53
2018-12-16T20:23:14.189Z,10.70
2018-12-16T20:28:17.589Z,7.62
2018-12-16T20:33:21.235Z,6.05
2018-12-16T20:38:24.844Z,6.67
2018-12-16T20:43:28.083Z,7.90
2018-12-16T20:48:31.306Z,9.88
2018-12-16T20:53:34.616Z,5.60
2018-12-16T20:58:37.958Z,5.90
2018-12-16T21:03:41.568Z,7.70
2018-12-16T21:08:44.937Z,4.50
2018-12-16T21:13:53.753Z,7.17
2018-12-16T21:18:57.245Z,9.65
2018-12-16T21:24:01.150Z,37.50
2018-12-16T21:29:04.537Z,10.78
2018-12-16T21:34:08.040Z,11.08
2018-12-16T21:39:11.582Z,14.33
2018-12-16T21:44:16.880Z,11.35
2018-12-16T21:49:20.118Z,8.85
2018-12-16T21:54:23.407Z,12.23
2018-12-16T21:59:26.827Z,10.98
2018-12-16T22:04:30.277Z,12.10
2018-12-16T22:09:33.981Z,12.13
2018-12-16T22:14:37.129Z,12.75
2018-12-16T22:19:40.440Z,14.15
2018-12-16T22:24:43.685Z,7.83
2018-12-16T22:29:46.876Z,8.63
2018-12-16T22:34:50.124Z,8.13
2018-12-16T22:39:53.476Z,11.60
2018-12-16T22:44:57.016Z,8.28
2018-12-16T22:50:01.304Z,10.10
2018-12-16T22:55:05.507Z,8.48
2018-12-16T23:00:13.560Z,8.93
2018-12-16T23:05:18.853Z,12.95
2018-12-16T23:10:22.204Z,11.78
2018-12-16T23:15:25.639Z,10.40
2018-12-16T23:20:28.944Z,10.85
2018-12-16T23:25:32.211Z,14.58
2018-12-16T23:30:35.602Z,7.70
2018-12-16T23:35:38.798Z,11.28
2018-12-16T23:40:42.209Z,14.15
2018-12-16T23:45:45.505Z,21.17
2018-12-16T23:50:49.902Z,19.32
2018-12-16T23:55:53.243Z,16.10
